Time;durP1;ratioP1;P1;durP2;ratioP2;P2;SDS_P1;SDS_P2;PMS_P1;PMS_P2;Temp;Humidity;BMP_temperature;BMP_pressure;BME280_temperature;BME280_humidity;BME280_pressure;Samples;Min_cycle;Max_cycle;Signal;HPM_P1;HPM_P2
2024/02/09 00:00:57;;;;;;;4.38;1.92;;;6.30;99.90;;;;;;6277139;22;20022;-85
2024/02/09 00:03:23;;;;;;;3.65;1.67;;;6.50;99.90;;;;;;6271940;22;20031;-84
2024/02/09 00:05:50;;;;;;;3.20;1.40;;;6.60;99.90;;;;;;6277203;22;20011;-84
2024/02/09 00:08:17;;;;;;;3.53;1.15;;;6.70;99.90;;;;;;6276639;22;20015;-84
2024/02/09 00:10:43;;;;;;;3.92;1.13;;;6.80;99.90;;;;;;6276625;22;20439;-84
2024/02/09 00:13:12;;;;;;;6.47;1.08;;;7.10;99.90;;;;;;6302685;22;19995;-84
2024/02/09 00:15:38;;;;;;;2.42;0.70;;;7.40;99.90;;;;;;6252121;22;20043;-84
2024/02/09 00:18:04;;;;;;;3.53;0.88;;;7.50;99.90;;;;;;6245942;22;20090;-84
2024/02/09 00:20:30;;;;;;;4.07;0.60;;;7.90;99.90;;;;;;6296950;22;20042;-85
2024/02/09 00:22:56;;;;;;;4.20;1.08;;;8.20;99.90;;;;;;6246339;22;20007;-85
2024/02/09 00:25:21;;;;;;;3.20;0.63;;;8.30;99.90;;;;;;6273390;22;20011;-85
2024/02/09 00:27:47;;;;;;;3.75;1.00;;;8.50;99.90;;;;;;6246312;22;20057;-85
2024/02/09 00:30:13;;;;;;;5.68;0.93;;;8.90;99.90;;;;;;6271742;22;20015;-86
2024/02/09 00:32:39;;;;;;;3.70;0.98;;;8.90;99.90;;;;;;6271847;22;20085;-85
2024/02/09 00:35:08;;;;;;;3.65;0.77;;;9.10;99.90;;;;;;6272104;22;20429;-85
2024/02/09 00:37:38;;;;;;;4.97;1.00;;;9.20;99.90;;;;;;6273602;22;20004;-86
2024/02/09 00:40:07;;;;;;;6.90;1.90;;;9.20;99.90;;;;;;6272633;22;20004;-85
2024/02/09 00:42:37;;;;;;;5.28;1.17;;;9.30;99.90;;;;;;6272113;22;20443;-85
2024/02/09 00:45:03;;;;;;;3.83;1.30;;;9.40;99.90;;;;;;6272570;22;20003;-85
2024/02/09 00:47:30;;;;;;;3.78;1.00;;;9.40;99.90;;;;;;6272218;22;20014;-86
2024/02/09 00:49:57;;;;;;;3.05;1.13;;;9.40;99.90;;;;;;6298071;22;20103;-86
2024/02/09 00:52:24;;;;;;;3.22;1.00;;;9.50;99.90;;;;;;6298735;22;20036;-86
2024/02/09 00:54:50;;;;;;;3.33;0.80;;;9.60;99.90;;;;;;6272908;22;20008;-86
2024/02/09 00:57:17;;;;;;;4.45;1.02;;;9.70;99.90;;;;;;6273453;22;20453;-85
2024/02/09 00:59:43;;;;;;;4.25;0.73;;;9.60;99.90;;;;;;6273955;22;20224;-85
2024/02/09 01:02:09;;;;;;;3.70;0.82;;;9.60;99.90;;;;;;6272964;22;20146;-85
2024/02/09 01:04:35;;;;;;;3.28;0.73;;;9.60;99.90;;;;;;6273167;22;20006;-86
2024/02/09 01:07:05;;;;;;;2.85;0.80;;;9.80;99.90;;;;;;6272328;22;20016;-87
2024/02/09 01:09:33;;;;;;;4.60;0.90;;;9.80;99.90;;;;;;6273248;22;20447;-85
2024/02/09 01:11:59;;;;;;;4.57;0.95;;;9.70;99.90;;;;;;6271413;22;20432;-86
2024/02/09 02:45:10;;;;;;;4.35;0.80;;;10.20;99.90;;;;;;6299212;22;20004;-87
2024/02/09 02:47:37;;;;;;;3.65;0.68;;;10.20;99.90;;;;;;6274320;22;20019;-87
2024/02/09 03:06:28;;;;;;;2.42;0.50;;;10.30;99.90;;;;;;6275257;22;20015;-87
2024/02/09 03:08:54;;;;;;;2.75;0.55;;;10.30;99.90;;;;;;6274967;22;20011;-86
2024/02/09 03:11:19;;;;;;;4.28;0.82;;;10.30;99.90;;;;;;6273251;22;20054;-87
2024/02/09 03:13:46;;;;;;;3.50;0.60;;;10.30;99.90;;;;;;6273830;22;20111;-87
2024/02/09 03:16:15;;;;;;;4.47;0.50;;;10.30;99.90;;;;;;6273230;22;20008;-87
2024/02/09 03:18:40;;;;;;;5.47;0.70;;;10.30;99.90;;;;;;6274834;22;20050;-87
2024/02/09 03:21:06;;;;;;;5.63;0.60;;;10.30;99.90;;;;;;6299604;22;20004;-87
2024/02/09 03:23:32;;;;;;;3.78;1.00;;;10.30;99.90;;;;;;6273209;22;20050;-87
2024/02/09 03:25:57;;;;;;;2.75;0.50;;;10.30;99.90;;;;;;6273973;22;20122;-89
2024/02/09 03:28:23;;;;;;;1.70;0.60;;;10.30;99.90;;;;;;6247355;22;20033;-87
2024/02/09 03:30:49;;;;;;;1.98;0.50;;;10.30;99.90;;;;;;6273393;22;20385;-86
2024/02/09 03:33:15;;;;;;;2.72;0.98;;;10.30;99.90;;;;;;6274836;22;20475;-87
2024/02/09 03:35:41;;;;;;;2.00;0.55;;;10.30;99.90;;;;;;6274794;22;20345;-88
2024/02/09 03:38:06;;;;;;;3.50;0.50;;;10.30;99.90;;;;;;6298991;22;20004;-87
2024/02/09 03:40:32;;;;;;;2.30;0.50;;;10.30;99.90;;;;;;6272899;22;20003;-88
2024/02/09 03:42:58;;;;;;;1.88;0.52;;;10.30;99.90;;;;;;6273539;22;20004;-86
2024/02/09 03:45:23;;;;;;;3.15;0.50;;;10.20;99.90;;;;;;6273088;22;20008;-87
2024/02/09 03:47:51;;;;;;;2.15;0.40;;;10.20;99.90;;;;;;6273014;22;20042;-88
2024/02/09 03:50:16;;;;;;;2.45;0.40;;;10.30;99.90;;;;;;6273004;22;20043;-87
2024/02/09 03:52:45;;;;;;;2.70;0.50;;;10.30;99.90;;;;;;6273345;22;20459;-87
2024/02/09 03:55:16;;;;;;;2.53;0.30;;;10.30;99.90;;;;;;6247868;22;20008;-88
2024/02/09 03:57:44;;;;;;;2.58;0.40;;;10.30;99.90;;;;;;6247951;22;20295;-87
2024/02/09 04:00:12;;;;;;;1.83;0.63;;;10.30;99.90;;;;;;6247482;22;20403;-86
2024/02/09 04:02:38;;;;;;;4.13;0.60;;;10.30;99.90;;;;;;6299421;22;20011;-87
2024/02/09 04:05:05;;;;;;;3.15;0.60;;;10.30;99.90;;;;;;6272899;22;20007;-88
2024/02/09 04:07:30;;;;;;;2.35;0.82;;;10.30;99.90;;;;;;6272905;22;20018;-86
2024/02/09 04:09:56;;;;;;;2.63;0.63;;;10.30;99.90;;;;;;6272665;22;20015;-88
2024/02/09 04:12:21;;;;;;;2.38;0.70;;;10.30;99.90;;;;;;6273186;22;20028;-86
2024/02/09 04:14:47;;;;;;;3.30;0.50;;;10.30;99.90;;;;;;6272805;22;20035;-87
2024/02/09 04:17:13;;;;;;;3.72;0.68;;;10.30;99.90;;;;;;6246967;22;20011;-87
2024/02/09 04:19:38;;;;;;;3.53;0.73;;;10.30;99.90;;;;;;6272644;22;20018;-87
2024/02/09 04:22:08;;;;;;;1.60;0.50;;;10.30;99.90;;;;;;6298824;22;19996;-87
2024/02/09 04:24:36;;;;;;;3.47;0.50;;;10.30;99.90;;;;;;6247378;22;20007;-86
2024/02/09 04:27:03;;;;;;;2.00;0.68;;;10.30;99.90;;;;;;6273125;22;20046;-86
2024/02/09 04:29:28;;;;;;;3.00;0.80;;;10.30;99.90;;;;;;6272375;22;20020;-87
2024/02/09 04:31:55;;;;;;;4.25;0.57;;;10.30;99.90;;;;;;6247158;22;20003;-87
2024/02/09 04:34:21;;;;;;;2.03;0.60;;;10.30;99.90;;;;;;6272233;22;20034;-86
2024/02/09 04:36:47;;;;;;;1.98;0.50;;;10.30;99.90;;;;;;6247140;22;19996;-87
2024/02/09 04:39:14;;;;;;;3.72;0.90;;;10.30;99.90;;;;;;6272244;22;20069;-86
2024/02/09 04:41:45;;;;;;;2.22;0.52;;;10.30;99.90;;;;;;6273228;22;20035;-86
2024/02/09 04:44:11;;;;;;;2.63;0.60;;;10.30;99.90;;;;;;6272815;22;20004;-87
2024/02/09 04:46:40;;;;;;;3.33;0.45;;;10.30;99.90;;;;;;6272975;22;20008;-87
2024/02/09 04:49:08;;;;;;;1.67;0.50;;;10.30;99.90;;;;;;6247067;22;20035;-86
2024/02/09 04:51:38;;;;;;;1.70;0.50;;;10.40;99.90;;;;;;6273718;22;20012;-88
2024/02/09 04:54:05;;;;;;;3.85;0.40;;;10.30;99.90;;;;;;6247389;22;20012;-87
2024/02/09 04:56:32;;;;;;;2.03;0.60;;;10.30;99.90;;;;;;6246833;22;20304;-87
2024/02/09 04:59:09;;;;;;;2.15;0.50;;;10.40;99.90;;;;;;6272970;22;20490;-86
2024/02/09 05:01:44;;;;;;;1.70;0.40;;;10.30;99.90;;;;;;6247147;22;20014;-87
2024/02/09 05:04:12;;;;;;;1.70;0.40;;;10.30;99.90;;;;;;6272030;22;20004;-86
2024/02/09 05:06:38;;;;;;;2.03;0.40;;;10.30;99.90;;;;;;6273248;22;20003;-88
2024/02/09 05:09:09;;;;;;;1.48;0.30;;;10.30;99.90;;;;;;6275120;22;20065;-87
2024/02/09 05:11:36;;;;;;;2.65;0.30;;;10.40;99.90;;;;;;6274442;22;20038;-87
2024/02/09 05:14:04;;;;;;;2.55;0.40;;;10.40;99.90;;;;;;6274870;22;20062;-87
2024/02/09 05:16:31;;;;;;;1.25;0.50;;;10.40;99.90;;;;;;6249203;22;20057;-87
2024/02/09 05:18:56;;;;;;;1.25;0.40;;;10.30;99.90;;;;;;6276156;22;20043;-89
2024/02/09 05:21:22;;;;;;;1.23;0.40;;;10.40;99.90;;;;;;6272133;22;20004;-88
2024/02/09 05:23:48;;;;;;;2.10;0.50;;;10.40;99.90;;;;;;6275990;22;20015;-88
2024/02/09 05:26:14;;;;;;;1.70;0.30;;;10.40;99.90;;;;;;6273655;22;20008;-88
2024/02/09 05:28:44;;;;;;;2.03;0.40;;;10.40;99.90;;;;;;6299771;22;20008;-87
2024/02/09 05:31:19;;;;;;;2.47;0.40;;;10.40;99.90;;;;;;6248882;22;20015;-88
2024/02/09 05:33:46;;;;;;;2.45;0.50;;;10.40;99.90;;;;;;6274579;22;20000;-89
2024/02/09 05:36:25;;;;;;;1.50;0.47;;;10.40;99.90;;;;;;6275189;22;20102;-88
2024/02/09 05:38:53;;;;;;;2.72;0.40;;;10.40;99.90;;;;;;6274326;22;20011;-88
2024/02/09 05:41:20;;;;;;;1.20;0.40;;;10.40;99.90;;;;;;6300195;22;20447;-90
2024/02/09 05:43:47;;;;;;;2.17;0.38;;;10.40;99.90;;;;;;6274497;22;20023;-90
2024/02/09 05:48:42;;;;;;;1.98;0.30;;;10.40;99.90;;;;;;6275515;22;20035;-88
2024/02/09 05:51:14;;;;;;;1.17;0.30;;;10.40;99.90;;;;;;6248736;22;20035;-88
2024/02/09 05:53:40;;;;;;;2.80;0.40;;;10.40;99.90;;;;;;6274407;22;20428;-90
2024/02/09 05:56:27;;;;;;;2.35;0.40;;;10.40;99.90;;;;;;6274100;22;20010;-89
2024/02/09 05:58:57;;;;;;;3.92;0.50;;;10.40;99.90;;;;;;6274111;22;20432;-88
2024/02/09 06:01:30;;;;;;;2.30;0.50;;;10.50;99.90;;;;;;6273746;22;20035;-89
2024/02/09 06:03:56;;;;;;;2.83;0.50;;;10.40;99.90;;;;;;6248525;22;20035;-87
2024/02/09 06:06:22;;;;;;;2.25;0.40;;;10.30;99.90;;;;;;6247601;22;20432;-87
2024/02/09 06:08:49;;;;;;;2.67;0.40;;;10.30;99.90;;;;;;6274028;22;20012;-89
2024/02/09 06:11:16;;;;;;;2.53;0.30;;;10.30;99.90;;;;;;6273826;22;20003;-88
2024/02/09 06:13:44;;;;;;;1.17;0.38;;;10.30;99.90;;;;;;6273385;22;20019;-88
2024/02/09 06:16:14;;;;;;;1.55;0.30;;;10.40;99.90;;;;;;6273133;22;20121;-89
2024/02/09 06:18:42;;;;;;;2.25;0.40;;;10.40;99.90;;;;;;6273912;22;20344;-89
2024/02/09 06:21:08;;;;;;;3.70;0.50;;;10.40;99.90;;;;;;6248502;22;20011;-88
2024/02/09 06:23:38;;;;;;;1.95;0.40;;;10.40;99.90;;;;;;6274436;22;20094;-88
2024/02/09 06:26:04;;;;;;;2.08;0.40;;;10.40;99.90;;;;;;6248324;22;20011;-88
2024/02/09 06:28:30;;;;;;;0.90;0.30;;;10.40;99.90;;;;;;6273884;22;20015;-88
2024/02/09 06:30:55;;;;;;;2.05;0.38;;;10.40;99.90;;;;;;6273449;22;20027;-88
2024/02/09 06:33:21;;;;;;;1.70;0.38;;;10.40;99.90;;;;;;6248276;22;20113;-88
2024/02/09 06:35:48;;;;;;;2.50;0.52;;;10.40;99.90;;;;;;6273601;22;20126;-88
2024/02/09 06:38:14;;;;;;;1.70;0.30;;;10.40;99.90;;;;;;6273866;22;20434;-88
2024/02/09 06:40:40;;;;;;;1.83;0.40;;;10.40;99.90;;;;;;6247134;22;20011;-89
2024/02/09 06:43:06;;;;;;;1.65;0.30;;;10.40;99.90;;;;;;6273934;22;20324;-87
2024/02/09 06:45:35;;;;;;;2.55;0.30;;;10.40;99.90;;;;;;6247494;22;20086;-90
2024/02/09 06:48:05;;;;;;;1.20;0.40;;;10.30;99.90;;;;;;6226068;23;20020;-88
2024/02/09 06:50:35;;;;;;;1.88;0.30;;;10.40;99.90;;;;;;6241572;23;20016;-88
2024/02/09 06:53:07;;;;;;;1.15;0.32;;;10.40;99.90;;;;;;6243035;23;20008;-88
2024/02/09 06:55:34;;;;;;;0.47;0.20;;;10.40;99.90;;;;;;6217761;23;20337;-88
2024/02/09 06:58:01;;;;;;;1.00;0.30;;;10.30;99.90;;;;;;6218157;23;20011;-87
2024/02/09 07:00:26;;;;;;;1.65;0.30;;;10.40;99.90;;;;;;6217214;23;20008;-87
2024/02/09 07:02:53;;;;;;;1.27;0.30;;;10.30;99.90;;;;;;6268630;22;20039;-88
2024/02/09 07:05:22;;;;;;;1.17;0.30;;;10.40;99.90;;;;;;6242675;23;20031;-87
2024/02/09 07:07:49;;;;;;;1.13;0.30;;;10.30;99.90;;;;;;6217614;23;20440;-88
2024/02/09 07:10:17;;;;;;;0.95;0.30;;;10.40;99.90;;;;;;6242782;23;20264;-87
2024/02/09 07:12:44;;;;;;;1.80;0.30;;;10.40;99.90;;;;;;6242934;23;20015;-87
2024/02/09 07:15:10;;;;;;;0.60;0.20;;;10.40;99.90;;;;;;6216694;23;20012;-87
2024/02/09 07:17:35;;;;;;;2.05;0.50;;;10.30;99.90;;;;;;6241828;23;20016;-87
2024/02/09 07:20:05;;;;;;;1.90;0.30;;;10.40;99.90;;;;;;6242548;23;19996;-87
2024/02/09 07:22:34;;;;;;;1.30;0.40;;;10.40;99.90;;;;;;6217064;23;20074;-87
2024/02/09 07:25:01;;;;;;;0.82;0.30;;;10.40;99.90;;;;;;6242794;23;20490;-88
2024/02/09 07:27:27;;;;;;;1.55;0.40;;;10.40;99.90;;;;;;6216526;23;20004;-87
2024/02/09 07:29:53;;;;;;;1.48;0.40;;;10.40;99.90;;;;;;6216218;23;20345;-88
2024/02/09 07:32:18;;;;;;;2.13;0.40;;;10.40;99.90;;;;;;6241473;23;20010;-87
2024/02/09 07:34:44;;;;;;;1.02;0.30;;;10.40;99.90;;;;;;6241869;23;20364;-88
2024/02/09 07:37:13;;;;;;;2.13;0.30;;;10.40;99.90;;;;;;6267384;22;20050;-87
2024/02/09 07:39:39;;;;;;;1.63;0.30;;;10.40;99.90;;;;;;6243502;23;20007;-87
2024/02/09 07:42:05;;;;;;;2.15;0.40;;;10.50;99.90;;;;;;6242364;23;20038;-88
2024/02/09 07:44:30;;;;;;;2.60;0.40;;;10.50;99.90;;;;;;6242070;23;20012;-87
2024/02/09 07:46:57;;;;;;;3.10;0.40;;;10.50;99.90;;;;;;6242494;22;20016;-88
2024/02/09 07:49:26;;;;;;;3.53;0.40;;;10.50;99.90;;;;;;6267122;22;20023;-87
2024/02/09 07:51:52;;;;;;;3.20;0.67;;;10.60;99.90;;;;;;6267767;22;20027;-88
2024/02/09 07:54:18;;;;;;;2.22;0.43;;;10.60;99.90;;;;;;6216810;23;20015;-89
2024/02/09 07:56:44;;;;;;;1.83;0.50;;;10.60;99.90;;;;;;6242131;23;20012;-88
2024/02/09 07:59:10;;;;;;;2.78;0.40;;;10.60;99.90;;;;;;6241901;23;20306;-88
2024/02/09 08:01:36;;;;;;;3.42;0.30;;;10.60;99.90;;;;;;6242295;23;20015;-88
2024/02/09 08:04:02;;;;;;;1.98;0.30;;;10.60;99.90;;;;;;6216300;23;20262;-89
2024/02/09 08:06:28;;;;;;;2.30;0.40;;;10.60;99.90;;;;;;6242881;23;20018;-89
2024/02/09 08:08:54;;;;;;;1.70;0.40;;;10.60;99.90;;;;;;6215834;23;20063;-88
2024/02/09 08:11:24;;;;;;;2.92;0.50;;;10.60;99.90;;;;;;6214613;23;20038;-88
2024/02/09 08:13:53;;;;;;;1.77;0.50;;;10.70;99.90;;;;;;6190904;23;20015;-88
2024/02/09 08:16:20;;;;;;;1.38;0.52;;;10.70;99.90;;;;;;6215998;23;20495;-88
2024/02/09 08:18:46;;;;;;;1.60;0.50;;;10.80;99.90;;;;;;6214533;23;20139;-88
2024/02/09 08:21:12;;;;;;;3.35;0.50;;;10.70;99.90;;;;;;6164220;23;20269;-89
2024/02/09 08:23:39;;;;;;;2.15;1.02;;;10.70;99.90;;;;;;6187249;23;20572;-88
2024/02/09 08:26:06;;;;;;;2.10;0.60;;;10.70;99.90;;;;;;6214466;23;20092;-87
2024/02/09 08:28:32;;;;;;;3.95;0.50;;;10.70;99.90;;;;;;6214334;23;20016;-88
2024/02/09 08:30:58;;;;;;;2.20;0.60;;;10.70;99.90;;;;;;6214176;23;20012;-87
2024/02/09 08:33:24;;;;;;;1.52;0.43;;;10.70;99.90;;;;;;6214286;23;20004;-87
2024/02/09 08:35:50;;;;;;;4.53;0.77;;;10.80;99.90;;;;;;6189009;23;20182;-88
2024/02/09 08:38:16;;;;;;;3.30;0.50;;;10.70;99.90;;;;;;6239428;23;20000;-87
2024/02/09 08:40:43;;;;;;;4.35;0.68;;;10.80;99.90;;;;;;6214235;23;20004;-88
2024/02/09 08:43:10;;;;;;;3.28;1.00;;;10.80;99.90;;;;;;6189004;23;20012;-88
2024/02/09 08:45:36;;;;;;;2.05;0.50;;;10.80;99.90;;;;;;6213660;23;20039;-87
2024/02/09 08:48:03;;;;;;;3.90;0.60;;;10.90;99.90;;;;;;6206366;23;20095;-89
2024/02/09 08:50:28;;;;;;;2.60;0.60;;;10.90;99.90;;;;;;6213264;23;20531;-88
2024/02/09 08:52:54;;;;;;;5.30;0.50;;;10.90;99.90;;;;;;6189187;23;20024;-88
2024/02/09 08:55:21;;;;;;;4.18;0.60;;;11.00;99.90;;;;;;6214327;23;20400;-88
2024/02/09 08:57:47;;;;;;;2.97;0.50;;;11.00;99.90;;;;;;6189599;23;20079;-87
2024/02/09 09:00:13;;;;;;;2.97;0.57;;;11.00;99.90;;;;;;6214528;23;20043;-88
2024/02/09 09:02:39;;;;;;;4.22;0.85;;;11.00;99.90;;;;;;6214596;23;20004;-89
2024/02/09 09:05:07;;;;;;;4.47;0.77;;;11.00;99.90;;;;;;6214505;23;20042;-89
2024/02/09 09:07:33;;;;;;;2.05;0.50;;;11.00;99.90;;;;;;6189176;23;20008;-88
2024/02/09 09:09:59;;;;;;;2.92;0.75;;;11.10;99.90;;;;;;6188832;23;20028;-89
2024/02/09 09:12:26;;;;;;;4.10;0.50;;;11.10;99.90;;;;;;6214324;23;20091;-88
2024/02/09 09:14:52;;;;;;;2.40;0.47;;;11.10;99.90;;;;;;6263956;22;20016;-90
2024/02/09 09:17:18;;;;;;;3.25;0.60;;;11.20;99.90;;;;;;6214179;23;20302;-90
2024/02/09 09:19:44;;;;;;;3.10;0.40;;;11.30;99.90;;;;;;6210423;23;20070;-88
2024/02/09 09:22:09;;;;;;;1.98;0.40;;;11.40;99.90;;;;;;6213710;23;20012;-87
2024/02/09 09:24:35;;;;;;;3.97;0.70;;;11.40;99.90;;;;;;6264112;22;20328;-89
2024/02/09 09:27:01;;;;;;;3.40;0.60;;;11.50;99.90;;;;;;6214359;23;20012;-89
2024/02/09 09:29:27;;;;;;;2.55;0.75;;;11.50;99.90;;;;;;6239238;23;20052;-88
2024/02/09 09:31:52;;;;;;;4.20;0.88;;;11.40;99.90;;;;;;6239677;23;20004;-89
2024/02/09 09:34:18;;;;;;;6.90;0.93;;;11.40;99.90;;;;;;6264064;22;20008;-87
2024/02/09 09:36:45;;;;;;;3.60;0.60;;;11.40;99.90;;;;;;6239477;23;20235;-90
2024/02/09 09:39:10;;;;;;;3.53;0.60;;;11.40;99.90;;;;;;6238979;23;20008;-90
2024/02/09 09:41:37;;;;;;;4.25;0.80;;;11.40;99.90;;;;;;6214480;23;20038;-89
2024/02/09 09:44:04;;;;;;;3.75;0.60;;;11.40;99.90;;;;;;6238946;23;20070;-89
2024/02/09 09:46:30;;;;;;;3.67;0.60;;;11.40;99.90;;;;;;6245500;22;20004;-88
2024/02/09 09:48:57;;;;;;;4.15;0.50;;;11.40;99.90;;;;;;6302251;22;20047;-90
2024/02/09 09:51:25;;;;;;;1.92;0.50;;;11.40;99.90;;;;;;6302742;22;20038;-89
2024/02/09 09:53:52;;;;;;;2.83;0.50;;;11.30;99.90;;;;;;6250808;22;20003;-89
2024/02/09 09:56:19;;;;;;;2.72;0.52;;;11.40;99.90;;;;;;6276660;22;20007;-88
2024/02/09 09:58:45;;;;;;;3.53;0.50;;;11.30;99.90;;;;;;6250619;22;20056;-88
2024/02/09 10:01:12;;;;;;;2.00;0.60;;;11.40;99.90;;;;;;6251094;22;20454;-88
2024/02/09 10:03:43;;;;;;;4.03;0.60;;;11.40;99.90;;;;;;6251163;22;20276;-89
2024/02/09 10:06:09;;;;;;;1.20;0.40;;;11.40;99.90;;;;;;6252001;22;20018;-87
2024/02/09 10:08:38;;;;;;;2.13;0.63;;;11.50;99.90;;;;;;6277397;22;20431;-88
2024/02/09 10:11:06;;;;;;;2.50;0.47;;;11.50;99.90;;;;;;6251985;22;20011;-90
2024/02/09 10:13:35;;;;;;;3.78;0.90;;;11.60;99.90;;;;;;6251661;22;20432;-89
2024/02/09 10:16:03;;;;;;;1.67;0.50;;;11.70;99.90;;;;;;6251455;22;20015;-88
2024/02/09 10:18:34;;;;;;;4.72;0.80;;;11.90;99.90;;;;;;6250612;22;20340;-88
2024/02/09 10:21:05;;;;;;;3.28;0.70;;;11.90;99.90;;;;;;6223136;22;20019;-89
2024/02/09 10:23:32;;;;;;;3.40;0.75;;;12.00;99.90;;;;;;6276572;22;20325;-89
2024/02/09 10:26:03;;;;;;;4.55;0.98;;;12.00;99.90;;;;;;6251257;22;20454;-89
2024/02/09 10:28:29;;;;;;;1.73;0.40;;;11.80;99.90;;;;;;6251471;22;20438;-87
2024/02/09 10:30:59;;;;;;;4.70;0.77;;;11.80;99.90;;;;;;6276838;22;20458;-90
2024/02/09 10:33:25;;;;;;;4.22;0.65;;;11.90;99.90;;;;;;6250912;22;20382;-91
2024/02/09 10:35:55;;;;;;;2.10;0.68;;;12.00;99.90;;;;;;6276735;22;20007;-89
2024/02/09 10:38:22;;;;;;;3.38;0.60;;;12.00;99.90;;;;;;6275940;22;20093;-89
2024/02/09 10:40:54;;;;;;;1.95;0.60;;;11.90;99.90;;;;;;6250436;22;20324;-89
2024/02/09 10:43:25;;;;;;;3.33;0.68;;;11.90;99.90;;;;;;6251082;22;20011;-90
2024/02/09 10:45:53;;;;;;;2.88;0.50;;;11.90;99.90;;;;;;6276176;22;20029;-88
2024/02/09 10:48:34;;;;;;;2.35;0.70;;;11.80;99.90;;;;;;6249765;22;20025;-88
2024/02/09 10:51:08;;;;;;;5.28;0.60;;;11.80;99.90;;;;;;6276455;22;20011;-90
2024/02/09 10:53:49;;;;;;;4.30;0.93;;;11.80;99.90;;;;;;6303425;22;20452;-91
2024/02/09 10:56:17;;;;;;;1.38;0.50;;;11.90;99.90;;;;;;6276967;22;20023;-91
2024/02/09 10:58:43;;;;;;;3.88;0.60;;;11.90;99.90;;;;;;6250873;22;20096;-88
2024/02/09 11:01:09;;;;;;;3.08;0.60;;;12.00;99.90;;;;;;6302606;22;20328;-90
2024/02/09 11:03:38;;;;;;;3.10;0.80;;;12.10;99.90;;;;;;6251251;22;20096;-88
2024/02/09 11:06:04;;;;;;;5.72;1.10;;;12.20;99.90;;;;;;6275393;22;20431;-89
2024/02/09 11:08:33;;;;;;;3.15;0.70;;;12.10;99.90;;;;;;6303878;22;20132;-89
2024/02/09 11:11:03;;;;;;;2.97;0.40;;;12.00;99.90;;;;;;6250719;22;20243;-88
2024/02/09 11:13:30;;;;;;;3.17;0.70;;;12.00;99.90;;;;;;6276627;22;20004;-90
2024/02/09 11:16:01;;;;;;;3.05;0.63;;;12.00;99.90;;;;;;6251197;22;20007;-89
2024/02/09 11:18:36;;;;;;;1.58;0.45;;;12.00;99.90;;;;;;6277366;22;19999;-90
2024/02/09 11:21:07;;;;;;;1.85;0.40;;;11.90;99.90;;;;;;6276516;22;20038;-89
2024/02/09 11:23:35;;;;;;;1.83;0.43;;;12.00;99.90;;;;;;6276977;22;20007;-90
2024/02/09 11:26:04;;;;;;;1.45;0.40;;;12.00;99.90;;;;;;6251140;22;20061;-89
2024/02/09 11:28:30;;;;;;;2.90;0.50;;;12.10;99.90;;;;;;6251352;22;20022;-89
2024/02/09 11:30:58;;;;;;;5.82;0.70;;;12.20;99.90;;;;;;6276731;22;20358;-89
2024/02/09 11:33:23;;;;;;;1.70;0.50;;;12.20;99.90;;;;;;6250680;22;20709;-89
2024/02/09 11:35:49;;;;;;;2.88;0.70;;;12.20;99.90;;;;;;6250639;22;20313;-89
2024/02/09 11:38:20;;;;;;;2.17;0.50;;;12.20;99.90;;;;;;6250407;22;20014;-88
2024/02/09 11:40:49;;;;;;;4.25;0.50;;;12.20;99.90;;;;;;6276085;22;20030;-88
2024/02/09 11:43:15;;;;;;;2.45;0.40;;;12.10;99.90;;;;;;6276715;22;19999;-90
2024/02/09 11:45:40;;;;;;;2.70;0.40;;;12.10;99.90;;;;;;6276362;22;20086;-89
2024/02/09 11:48:10;;;;;;;4.07;0.50;;;12.10;99.90;;;;;;6276359;22;20071;-89
2024/02/09 11:50:36;;;;;;;2.55;0.40;;;12.00;99.90;;;;;;6275860;22;20015;-87
2024/02/09 11:53:07;;;;;;;3.22;0.40;;;11.90;99.90;;;;;;6302576;22;20013;-88
2024/02/09 11:55:33;;;;;;;2.67;0.40;;;11.90;99.90;;;;;;6250952;22;20014;-88
2024/02/09 11:58:01;;;;;;;4.68;0.45;;;11.90;99.90;;;;;;6276002;22;20061;-89
2024/02/09 12:00:26;;;;;;;2.33;0.40;;;11.90;99.90;;;;;;6250486;22;20007;-88
2024/02/09 12:02:52;;;;;;;3.78;0.40;;;12.00;99.90;;;;;;6251130;22;20057;-88
2024/02/09 12:05:21;;;;;;;2.67;0.40;;;12.10;99.90;;;;;;6302417;22;20018;-89
2024/02/09 12:07:47;;;;;;;2.60;0.65;;;12.10;99.90;;;;;;6251002;22;20455;-90
2024/02/09 12:10:13;;;;;;;2.58;0.30;;;12.10;99.90;;;;;;6276193;22;20011;-88
2024/02/09 12:12:38;;;;;;;2.08;0.47;;;12.10;99.90;;;;;;6276800;22;20509;-88
2024/02/09 12:15:05;;;;;;;3.05;0.35;;;12.00;99.90;;;;;;6250671;22;20014;-88
2024/02/09 12:17:31;;;;;;;3.03;0.40;;;12.10;99.90;;;;;;6301913;22;20418;-88
2024/02/09 12:20:08;;;;;;;1.98;0.30;;;12.20;99.90;;;;;;6250993;22;20045;-88
2024/02/09 12:22:34;;;;;;;2.25;0.30;;;12.30;99.90;;;;;;6250286;22;20011;-88
2024/02/09 12:25:03;;;;;;;2.45;0.40;;;12.40;99.90;;;;;;6276123;22;20382;-88
2024/02/09 12:27:29;;;;;;;2.88;1.00;;;12.60;99.90;;;;;;6276665;22;20428;-88
2024/02/09 12:29:55;;;;;;;1.65;0.30;;;12.70;99.90;;;;;;6275794;22;20015;-89
2024/02/09 12:32:21;;;;;;;2.90;0.30;;;12.80;99.90;;;;;;6249561;22;20007;-87
2024/02/09 12:34:50;;;;;;;2.05;0.25;;;12.80;99.90;;;;;;6275925;22;20075;-89
2024/02/09 12:37:20;;;;;;;3.40;0.30;;;13.00;99.90;;;;;;6276090;22;20050;-87
2024/02/09 12:39:53;;;;;;;1.83;0.30;;;12.90;99.90;;;;;;6276843;22;20117;-89
2024/02/09 12:42:41;;;;;;;1.58;0.60;;;13.00;99.90;;;;;;6275621;22;20003;-90
2024/02/09 12:45:07;;;;;;;2.15;0.30;;;13.00;99.90;;;;;;6276067;22;20008;-87
2024/02/09 12:47:33;;;;;;;2.75;0.30;;;12.90;99.90;;;;;;6274951;22;20417;-90
2024/02/09 12:49:58;;;;;;;3.40;0.45;;;12.90;99.90;;;;;;6264018;22;20016;-89
2024/02/09 12:52:26;;;;;;;2.22;0.40;;;12.90;99.90;;;;;;6272341;22;20003;-88
2024/02/09 12:54:55;;;;;;;1.75;0.30;;;12.80;99.90;;;;;;6278167;22;20033;-88
2024/02/09 12:57:22;;;;;;;2.55;0.40;;;12.80;99.90;;;;;;6278376;22;20438;-90
2024/02/09 12:59:48;;;;;;;2.33;0.60;;;12.70;99.90;;;;;;6277701;22;20057;-87
2024/02/09 13:02:15;;;;;;;1.42;0.40;;;12.80;99.90;;;;;;6251771;22;20056;-89
2024/02/09 13:04:41;;;;;;;2.95;0.43;;;12.80;99.90;;;;;;6252564;22;20008;-87
2024/02/09 13:07:07;;;;;;;4.57;0.40;;;13.00;99.90;;;;;;6252359;22;20060;-86
2024/02/09 13:09:33;;;;;;;1.60;0.30;;;12.90;99.90;;;;;;6251922;22;20456;-90
2024/02/09 13:11:59;;;;;;;1.98;0.40;;;13.20;99.90;;;;;;6277927;22;19995;-86
2024/02/09 13:14:25;;;;;;;2.38;0.20;;;13.00;99.90;;;;;;6277290;22;20090;-86
2024/02/09 13:16:51;;;;;;;3.20;0.65;;;12.90;99.90;;;;;;6252239;22;20423;-88
2024/02/09 13:19:18;;;;;;;1.98;0.28;;;12.90;99.90;;;;;;6277614;22;20007;-88
2024/02/09 13:21:45;;;;;;;1.30;0.30;;;12.90;99.90;;;;;;6278187;22;20004;-88
2024/02/09 13:24:12;;;;;;;0.93;0.30;;;12.80;99.90;;;;;;6251899;22;20007;-89
2024/02/09 13:26:39;;;;;;;2.67;0.30;;;12.80;99.90;;;;;;6252229;22;20010;-87
2024/02/09 13:29:05;;;;;;;3.17;0.30;;;12.60;99.90;;;;;;6253048;22;20090;-87
2024/02/09 13:31:34;;;;;;;0.70;0.30;;;12.70;99.90;;;;;;6306409;22;20462;-88
2024/02/09 13:34:02;;;;;;;3.47;0.60;;;12.50;99.90;;;;;;6305604;22;20011;-87
2024/02/09 13:36:27;;;;;;;1.88;0.40;;;12.40;99.90;;;;;;6251986;22;20708;-88
2024/02/09 13:38:53;;;;;;;1.98;0.40;;;12.40;99.90;;;;;;6279827;22;20039;-88
2024/02/09 13:41:19;;;;;;;1.63;0.38;;;12.50;99.90;;;;;;6278781;22;20010;-88
2024/02/09 13:43:45;;;;;;;1.50;0.35;;;12.40;99.90;;;;;;6254462;22;20007;-88
2024/02/09 13:46:11;;;;;;;2.05;0.30;;;12.40;99.90;;;;;;6254099;22;20022;-89
2024/02/09 13:48:37;;;;;;;1.13;0.30;;;12.40;99.90;;;;;;6279464;22;20499;-88
2024/02/09 13:51:05;;;;;;;1.48;0.30;;;12.50;99.90;;;;;;6214526;22;20022;-88
2024/02/09 13:53:31;;;;;;;1.02;0.30;;;12.50;99.90;;;;;;6280390;22;19995;-88
2024/02/09 13:55:57;;;;;;;1.58;0.30;;;12.50;99.90;;;;;;6279123;22;20068;-88
2024/02/09 13:58:23;;;;;;;0.77;0.20;;;12.50;99.90;;;;;;6279545;22;20003;-88
2024/02/09 14:00:48;;;;;;;1.42;0.20;;;12.50;99.90;;;;;;6253790;22;20396;-88
2024/02/09 14:03:14;;;;;;;1.88;0.40;;;12.50;99.90;;;;;;6253282;22;20094;-89
2024/02/09 14:05:40;;;;;;;1.27;0.20;;;12.50;99.90;;;;;;6305108;22;20007;-88
2024/02/09 14:08:06;;;;;;;1.63;0.20;;;12.40;99.90;;;;;;6279120;22;19999;-88
2024/02/09 14:10:32;;;;;;;0.85;0.20;;;12.60;99.90;;;;;;6253056;22;20493;-88
2024/02/09 14:12:58;;;;;;;2.95;0.20;;;12.50;99.90;;;;;;6279102;22;20003;-88
2024/02/09 14:15:24;;;;;;;1.88;0.22;;;12.60;99.90;;;;;;6278421;22;20035;-88
2024/02/09 14:17:50;;;;;;;1.30;0.20;;;12.60;99.90;;;;;;6253184;22;20042;-89
2024/02/09 14:20:16;;;;;;;0.90;0.30;;;12.60;99.90;;;;;;6252561;22;20455;-90
2024/02/09 14:22:42;;;;;;;0.60;0.20;;;12.60;99.90;;;;;;6254097;22;20007;-89
2024/02/09 14:25:09;;;;;;;1.73;0.30;;;12.60;99.90;;;;;;6279290;22;20065;-89
2024/02/09 14:27:37;;;;;;;0.73;0.20;;;12.50;99.90;;;;;;6253872;22;20019;-89
2024/02/09 14:30:03;;;;;;;0.80;0.20;;;12.60;99.90;;;;;;6274593;22;20830;-89
2024/02/09 14:32:29;;;;;;;1.50;0.20;;;12.50;99.90;;;;;;6279294;22;20089;-91
2024/02/09 14:34:54;;;;;;;2.35;0.20;;;12.50;99.90;;;;;;6277899;22;20007;-89
2024/02/09 14:37:21;;;;;;;2.28;0.20;;;12.40;99.90;;;;;;6278735;22;20116;-90